sensor_id;sensor_type;location;lat;lon;timestamp;P1;durP1;ratioP1;P2;durP2;ratioP2
57573;SDS011;63722;48.858;21.906;2023-03-03T00:02:03;2.38;;;2.28;;
57573;SDS011;63722;48.858;21.906;2023-03-03T00:04:28;2.72;;;2.53;;
57573;SDS011;63722;48.858;21.906;2023-03-03T00:06:53;2.60;;;2.40;;
57573;SDS011;63722;48.858;21.906;2023-03-03T00:09:19;2.45;;;2.35;;
57573;SDS011;63722;48.858;21.906;2023-03-03T00:11:45;2.60;;;2.50;;
57573;SDS011;63722;48.858;21.906;2023-03-03T00:14:27;2.92;;;2.72;;
57573;SDS011;63722;48.858;21.906;2023-03-03T00:16:54;2.30;;;2.20;;
57573;SDS011;63722;48.858;21.906;2023-03-03T00:19:21;2.63;;;2.42;;
57573;SDS011;63722;48.858;21.906;2023-03-03T00:21:51;2.70;;;2.50;;
57573;SDS011;63722;48.858;21.906;2023-03-03T00:26:55;2.88;;;2.78;;
57573;SDS011;63722;48.858;21.906;2023-03-03T00:29:39;2.53;;;2.42;;
57573;SDS011;63722;48.858;21.906;2023-03-03T00:34:48;2.60;;;2.50;;
57573;SDS011;63722;48.858;21.906;2023-03-03T00:37:19;2.88;;;2.78;;
57573;SDS011;63722;48.858;21.906;2023-03-03T00:39:49;2.78;;;2.65;;
57573;SDS011;63722;48.858;21.906;2023-03-03T00:42:15;2.70;;;2.60;;
57573;SDS011;63722;48.858;21.906;2023-03-03T00:44:43;3.00;;;2.80;;
57573;SDS011;63722;48.858;21.906;2023-03-03T00:49:50;2.70;;;2.60;;
57573;SDS011;63722;48.858;21.906;2023-03-03T00:52:18;2.65;;;2.45;;
57573;SDS011;63722;48.858;21.906;2023-03-03T00:54:44;2.70;;;2.60;;
57573;SDS011;63722;48.858;21.906;2023-03-03T00:57:09;2.63;;;2.53;;
57573;SDS011;63722;48.858;21.906;2023-03-03T00:59:36;2.50;;;2.40;;
57573;SDS011;63722;48.858;21.906;2023-03-03T01:02:02;2.50;;;2.40;;
57573;SDS011;63722;48.858;21.906;2023-03-03T01:04:27;2.72;;;2.53;;
57573;SDS011;63722;48.858;21.906;2023-03-03T01:06:53;2.78;;;2.67;;
57573;SDS011;63722;48.858;21.906;2023-03-03T01:09:19;2.38;;;2.22;;
57573;SDS011;63722;48.858;21.906;2023-03-03T01:11:44;2.70;;;2.60;;
57573;SDS011;63722;48.858;21.906;2023-03-03T01:14:09;2.85;;;2.75;;
57573;SDS011;63722;48.858;21.906;2023-03-03T01:16:35;2.67;;;2.58;;
57573;SDS011;63722;48.858;21.906;2023-03-03T01:19:00;3.00;;;2.80;;
57573;SDS011;63722;48.858;21.906;2023-03-03T01:21:26;2.53;;;2.40;;
57573;SDS011;63722;48.858;21.906;2023-03-03T01:23:51;2.30;;;2.20;;
57573;SDS011;63722;48.858;21.906;2023-03-03T01:26:17;2.70;;;2.60;;
57573;SDS011;63722;48.858;21.906;2023-03-03T01:28:42;2.58;;;2.47;;
57573;SDS011;63722;48.858;21.906;2023-03-03T01:31:08;2.90;;;2.67;;
57573;SDS011;63722;48.858;21.906;2023-03-03T01:33:33;2.83;;;2.70;;
57573;SDS011;63722;48.858;21.906;2023-03-03T01:36:00;2.50;;;2.40;;
57573;SDS011;63722;48.858;21.906;2023-03-03T01:38:26;2.50;;;2.40;;
57573;SDS011;63722;48.858;21.906;2023-03-03T01:40:52;2.72;;;2.50;;
57573;SDS011;63722;48.858;21.906;2023-03-03T01:43:20;3.03;;;2.83;;
57573;SDS011;63722;48.858;21.906;2023-03-03T01:51:01;2.30;;;2.20;;
57573;SDS011;63722;48.858;21.906;2023-03-03T01:53:35;2.53;;;2.42;;
57573;SDS011;63722;48.858;21.906;2023-03-03T01:56:06;2.80;;;2.70;;
57573;SDS011;63722;48.858;21.906;2023-03-03T01:58:39;2.33;;;2.22;;
57573;SDS011;63722;48.858;21.906;2023-03-03T02:01:10;3.15;;;2.95;;
57573;SDS011;63722;48.858;21.906;2023-03-03T02:03:39;2.83;;;2.63;;
57573;SDS011;63722;48.858;21.906;2023-03-03T02:06:07;3.00;;;2.80;;
57573;SDS011;63722;48.858;21.906;2023-03-03T02:08:53;2.83;;;2.55;;
57573;SDS011;63722;48.858;21.906;2023-03-03T02:11:22;2.85;;;2.65;;
57573;SDS011;63722;48.858;21.906;2023-03-03T02:13:48;3.15;;;2.95;;
57573;SDS011;63722;48.858;21.906;2023-03-03T02:16:13;3.17;;;2.88;;
57573;SDS011;63722;48.858;21.906;2023-03-03T02:18:39;2.85;;;2.65;;
57573;SDS011;63722;48.858;21.906;2023-03-03T02:26:28;2.75;;;2.65;;
57573;SDS011;63722;48.858;21.906;2023-03-03T02:28:55;2.70;;;2.50;;
57573;SDS011;63722;48.858;21.906;2023-03-03T02:31:22;3.05;;;2.85;;
57573;SDS011;63722;48.858;21.906;2023-03-03T02:33:50;2.72;;;2.63;;
57573;SDS011;63722;48.858;21.906;2023-03-03T02:36:18;2.70;;;2.60;;
57573;SDS011;63722;48.858;21.906;2023-03-03T02:46:26;3.20;;;3.00;;
57573;SDS011;63722;48.858;21.906;2023-03-03T02:48:53;3.00;;;2.80;;
57573;SDS011;63722;48.858;21.906;2023-03-03T02:51:18;3.00;;;2.83;;
57573;SDS011;63722;48.858;21.906;2023-03-03T02:53:44;3.22;;;3.05;;
57573;SDS011;63722;48.858;21.906;2023-03-03T02:56:09;2.85;;;2.70;;
57573;SDS011;63722;48.858;21.906;2023-03-03T02:58:35;3.08;;;2.88;;
57573;SDS011;63722;48.858;21.906;2023-03-03T03:01:02;3.03;;;2.83;;
57573;SDS011;63722;48.858;21.906;2023-03-03T03:03:28;2.97;;;2.88;;
57573;SDS011;63722;48.858;21.906;2023-03-03T03:05:53;2.83;;;2.72;;
57573;SDS011;63722;48.858;21.906;2023-03-03T03:08:19;2.70;;;2.60;;
57573;SDS011;63722;48.858;21.906;2023-03-03T03:10:44;2.85;;;2.70;;
57573;SDS011;63722;48.858;21.906;2023-03-03T03:13:10;3.03;;;2.83;;
57573;SDS011;63722;48.858;21.906;2023-03-03T03:15:36;2.90;;;2.70;;
57573;SDS011;63722;48.858;21.906;2023-03-03T03:18:01;2.80;;;2.70;;
57573;SDS011;63722;48.858;21.906;2023-03-03T03:20:27;2.70;;;2.60;;
57573;SDS011;63722;48.858;21.906;2023-03-03T03:22:53;3.00;;;2.90;;
57573;SDS011;63722;48.858;21.906;2023-03-03T03:25:18;2.92;;;2.83;;
57573;SDS011;63722;48.858;21.906;2023-03-03T03:27:43;2.83;;;2.70;;
57573;SDS011;63722;48.858;21.906;2023-03-03T03:30:09;3.28;;;3.08;;
57573;SDS011;63722;48.858;21.906;2023-03-03T03:32:35;2.80;;;2.70;;
57573;SDS011;63722;48.858;21.906;2023-03-03T03:35:00;2.88;;;2.72;;
57573;SDS011;63722;48.858;21.906;2023-03-03T03:37:26;2.97;;;2.78;;
57573;SDS011;63722;48.858;21.906;2023-03-03T03:39:51;3.08;;;2.92;;
57573;SDS011;63722;48.858;21.906;2023-03-03T03:42:17;2.72;;;2.63;;
57573;SDS011;63722;48.858;21.906;2023-03-03T03:44:43;2.88;;;2.78;;
57573;SDS011;63722;48.858;21.906;2023-03-03T03:47:08;3.00;;;2.80;;
57573;SDS011;63722;48.858;21.906;2023-03-03T03:49:34;3.10;;;2.90;;
57573;SDS011;63722;48.858;21.906;2023-03-03T03:51:59;3.22;;;3.10;;
57573;SDS011;63722;48.858;21.906;2023-03-03T03:54:25;3.00;;;2.90;;
57573;SDS011;63722;48.858;21.906;2023-03-03T03:56:50;3.30;;;3.10;;
57573;SDS011;63722;48.858;21.906;2023-03-03T03:59:15;2.75;;;2.63;;
57573;SDS011;63722;48.858;21.906;2023-03-03T04:01:41;2.85;;;2.75;;
57573;SDS011;63722;48.858;21.906;2023-03-03T04:04:06;2.97;;;2.78;;
57573;SDS011;63722;48.858;21.906;2023-03-03T04:06:31;3.33;;;3.13;;
57573;SDS011;63722;48.858;21.906;2023-03-03T04:08:57;3.30;;;3.10;;
57573;SDS011;63722;48.858;21.906;2023-03-03T04:11:22;3.00;;;2.90;;
57573;SDS011;63722;48.858;21.906;2023-03-03T04:13:48;3.30;;;3.10;;
57573;SDS011;63722;48.858;21.906;2023-03-03T04:16:13;2.70;;;2.60;;
57573;SDS011;63722;48.858;21.906;2023-03-03T04:18:38;3.35;;;3.15;;
57573;SDS011;63722;48.858;21.906;2023-03-03T04:21:09;3.17;;;2.97;;
57573;SDS011;63722;48.858;21.906;2023-03-03T04:23:36;3.00;;;2.90;;
57573;SDS011;63722;48.858;21.906;2023-03-03T04:26:01;3.28;;;3.08;;
57573;SDS011;63722;48.858;21.906;2023-03-03T04:28:27;3.40;;;3.20;;
57573;SDS011;63722;48.858;21.906;2023-03-03T04:30:52;3.00;;;2.80;;
57573;SDS011;63722;48.858;21.906;2023-03-03T04:33:18;2.90;;;2.80;;
57573;SDS011;63722;48.858;21.906;2023-03-03T04:35:43;2.95;;;2.70;;
57573;SDS011;63722;48.858;21.906;2023-03-03T04:38:09;3.35;;;3.15;;
57573;SDS011;63722;48.858;21.906;2023-03-03T04:40:34;3.00;;;2.88;;
57573;SDS011;63722;48.858;21.906;2023-03-03T04:43:00;3.60;;;3.00;;
57573;SDS011;63722;48.858;21.906;2023-03-03T04:45:25;3.83;;;3.03;;
57573;SDS011;63722;48.858;21.906;2023-03-03T04:47:50;3.13;;;3.00;;
57573;SDS011;63722;48.858;21.906;2023-03-03T04:50:16;3.15;;;2.95;;
57573;SDS011;63722;48.858;21.906;2023-03-03T04:52:41;3.30;;;3.20;;
57573;SDS011;63722;48.858;21.906;2023-03-03T04:55:07;3.30;;;3.10;;
57573;SDS011;63722;48.858;21.906;2023-03-03T04:57:33;3.15;;;3.00;;
57573;SDS011;63722;48.858;21.906;2023-03-03T04:59:59;3.38;;;3.17;;
57573;SDS011;63722;48.858;21.906;2023-03-03T05:02:24;3.20;;;3.00;;
57573;SDS011;63722;48.858;21.906;2023-03-03T05:04:49;3.17;;;3.00;;
57573;SDS011;63722;48.858;21.906;2023-03-03T05:07:15;3.40;;;3.20;;
57573;SDS011;63722;48.858;21.906;2023-03-03T05:09:41;2.90;;;2.78;;
57573;SDS011;63722;48.858;21.906;2023-03-03T05:12:07;2.88;;;2.78;;
57573;SDS011;63722;48.858;21.906;2023-03-03T05:14:32;3.45;;;3.25;;
57573;SDS011;63722;48.858;21.906;2023-03-03T05:16:57;3.20;;;3.00;;
57573;SDS011;63722;48.858;21.906;2023-03-03T05:19:23;3.40;;;3.20;;
57573;SDS011;63722;48.858;21.906;2023-03-03T05:21:49;3.80;;;3.40;;
57573;SDS011;63722;48.858;21.906;2023-03-03T05:24:14;3.20;;;3.10;;
57573;SDS011;63722;48.858;21.906;2023-03-03T05:26:40;3.25;;;3.05;;
57573;SDS011;63722;48.858;21.906;2023-03-03T05:29:06;3.50;;;3.30;;
57573;SDS011;63722;48.858;21.906;2023-03-03T05:31:32;3.42;;;3.22;;
57573;SDS011;63722;48.858;21.906;2023-03-03T05:33:58;3.40;;;3.20;;
57573;SDS011;63722;48.858;21.906;2023-03-03T05:36:23;3.40;;;3.20;;
57573;SDS011;63722;48.858;21.906;2023-03-03T05:38:49;3.55;;;3.35;;
57573;SDS011;63722;48.858;21.906;2023-03-03T05:41:15;3.40;;;3.20;;
57573;SDS011;63722;48.858;21.906;2023-03-03T05:43:40;3.22;;;3.03;;
57573;SDS011;63722;48.858;21.906;2023-03-03T05:46:06;3.25;;;3.05;;
57573;SDS011;63722;48.858;21.906;2023-03-03T05:48:32;3.22;;;3.08;;
57573;SDS011;63722;48.858;21.906;2023-03-03T05:50:57;3.67;;;3.47;;
57573;SDS011;63722;48.858;21.906;2023-03-03T05:53:24;3.72;;;3.42;;
57573;SDS011;63722;48.858;21.906;2023-03-03T05:55:49;6.75;;;3.47;;
57573;SDS011;63722;48.858;21.906;2023-03-03T05:58:15;4.47;;;4.07;;
57573;SDS011;63722;48.858;21.906;2023-03-03T06:00:40;9.25;;;5.82;;
57573;SDS011;63722;48.858;21.906;2023-03-03T06:03:06;8.25;;;7.25;;
57573;SDS011;63722;48.858;21.906;2023-03-03T06:05:31;9.25;;;6.35;;
57573;SDS011;63722;48.858;21.906;2023-03-03T06:07:56;8.13;;;7.35;;
57573;SDS011;63722;48.858;21.906;2023-03-03T06:10:22;8.73;;;6.68;;
57573;SDS011;63722;48.858;21.906;2023-03-03T06:12:47;9.38;;;7.53;;
57573;SDS011;63722;48.858;21.906;2023-03-03T06:15:13;10.00;;;7.10;;
57573;SDS011;63722;48.858;21.906;2023-03-03T06:17:38;8.18;;;7.38;;
57573;SDS011;63722;48.858;21.906;2023-03-03T06:20:04;8.57;;;7.50;;
57573;SDS011;63722;48.858;21.906;2023-03-03T06:22:30;8.27;;;7.57;;
57573;SDS011;63722;48.858;21.906;2023-03-03T06:24:56;8.45;;;7.75;;
57573;SDS011;63722;48.858;21.906;2023-03-03T06:27:21;9.15;;;8.07;;
57573;SDS011;63722;48.858;21.906;2023-03-03T06:29:47;8.25;;;7.50;;
57573;SDS011;63722;48.858;21.906;2023-03-03T06:32:12;8.40;;;7.72;;
57573;SDS011;63722;48.858;21.906;2023-03-03T06:34:38;8.77;;;7.95;;
57573;SDS011;63722;48.858;21.906;2023-03-03T06:37:03;14.00;;;8.60;;
57573;SDS011;63722;48.858;21.906;2023-03-03T06:39:29;11.43;;;8.68;;
57573;SDS011;63722;48.858;21.906;2023-03-03T06:41:54;24.23;;;9.52;;
57573;SDS011;63722;48.858;21.906;2023-03-03T06:44:20;18.30;;;9.48;;
57573;SDS011;63722;48.858;21.906;2023-03-03T06:46:45;15.32;;;10.02;;
57573;SDS011;63722;48.858;21.906;2023-03-03T06:49:11;16.20;;;8.82;;
57573;SDS011;63722;48.858;21.906;2023-03-03T06:51:37;10.30;;;9.18;;
57573;SDS011;63722;48.858;21.906;2023-03-03T06:56:42;14.35;;;8.77;;
57573;SDS011;63722;48.858;21.906;2023-03-03T06:59:13;29.98;;;10.30;;
57573;SDS011;63722;48.858;21.906;2023-03-03T07:01:42;15.30;;;9.13;;
57573;SDS011;63722;48.858;21.906;2023-03-03T07:06:53;17.35;;;8.95;;
57573;SDS011;63722;48.858;21.906;2023-03-03T07:09:24;15.50;;;8.82;;
57573;SDS011;63722;48.858;21.906;2023-03-03T07:11:52;13.95;;;8.95;;
57573;SDS011;63722;48.858;21.906;2023-03-03T07:14:21;20.10;;;8.75;;
57573;SDS011;63722;48.858;21.906;2023-03-03T07:16:49;9.32;;;8.23;;
57573;SDS011;63722;48.858;21.906;2023-03-03T07:19:20;9.50;;;8.55;;
57573;SDS011;63722;48.858;21.906;2023-03-03T07:21:54;9.55;;;8.55;;
57573;SDS011;63722;48.858;21.906;2023-03-03T07:24:26;17.58;;;9.50;;
57573;SDS011;63722;48.858;21.906;2023-03-03T07:27:05;11.13;;;8.95;;
57573;SDS011;63722;48.858;21.906;2023-03-03T07:29:41;12.00;;;9.70;;
57573;SDS011;63722;48.858;21.906;2023-03-03T07:34:59;13.10;;;8.93;;
57573;SDS011;63722;48.858;21.906;2023-03-03T07:37:57;10.30;;;9.40;;
57573;SDS011;63722;48.858;21.906;2023-03-03T07:40:37;13.20;;;10.57;;
57573;SDS011;63722;48.858;21.906;2023-03-03T07:43:15;16.23;;;12.20;;
57573;SDS011;63722;48.858;21.906;2023-03-03T07:45:47;13.02;;;10.95;;
57573;SDS011;63722;48.858;21.906;2023-03-03T07:48:16;11.80;;;10.70;;
57573;SDS011;63722;48.858;21.906;2023-03-03T07:50:49;13.45;;;12.05;;
57573;SDS011;63722;48.858;21.906;2023-03-03T07:53:23;19.52;;;12.18;;
57573;SDS011;63722;48.858;21.906;2023-03-03T07:55:51;19.90;;;11.85;;
57573;SDS011;63722;48.858;21.906;2023-03-03T07:58:22;20.92;;;11.38;;
57573;SDS011;63722;48.858;21.906;2023-03-03T08:03:56;18.17;;;10.77;;
57573;SDS011;63722;48.858;21.906;2023-03-03T08:11:34;16.13;;;11.75;;
57573;SDS011;63722;48.858;21.906;2023-03-03T08:13:59;14.25;;;11.82;;
57573;SDS011;63722;48.858;21.906;2023-03-03T08:16:37;17.80;;;12.30;;
57573;SDS011;63722;48.858;21.906;2023-03-03T08:19:04;14.80;;;11.30;;
57573;SDS011;63722;48.858;21.906;2023-03-03T08:21:30;18.70;;;12.55;;
57573;SDS011;63722;48.858;21.906;2023-03-03T08:23:57;19.60;;;12.27;;
57573;SDS011;63722;48.858;21.906;2023-03-03T08:26:24;21.17;;;13.32;;
57573;SDS011;63722;48.858;21.906;2023-03-03T08:28:50;24.15;;;13.15;;
57573;SDS011;63722;48.858;21.906;2023-03-03T08:31:16;13.35;;;12.07;;
57573;SDS011;63722;48.858;21.906;2023-03-03T08:33:42;15.82;;;13.40;;
57573;SDS011;63722;48.858;21.906;2023-03-03T08:36:08;14.88;;;12.10;;
57573;SDS011;63722;48.858;21.906;2023-03-03T08:38:34;13.80;;;12.30;;
57573;SDS011;63722;48.858;21.906;2023-03-03T08:41:00;20.67;;;12.00;;
57573;SDS011;63722;48.858;21.906;2023-03-03T08:43:26;15.15;;;11.88;;
57573;SDS011;63722;48.858;21.906;2023-03-03T08:45:53;13.75;;;12.32;;
57573;SDS011;63722;48.858;21.906;2023-03-03T08:48:23;15.02;;;13.65;;
57573;SDS011;63722;48.858;21.906;2023-03-03T08:50:49;19.70;;;12.50;;
57573;SDS011;63722;48.858;21.906;2023-03-03T08:53:15;21.52;;;14.02;;
57573;SDS011;63722;48.858;21.906;2023-03-03T08:55:41;16.77;;;13.35;;
57573;SDS011;63722;48.858;21.906;2023-03-03T08:58:07;15.38;;;12.68;;
57573;SDS011;63722;48.858;21.906;2023-03-03T09:00:33;17.40;;;13.82;;
57573;SDS011;63722;48.858;21.906;2023-03-03T09:02:59;14.15;;;12.82;;
57573;SDS011;63722;48.858;21.906;2023-03-03T09:05:25;16.83;;;13.23;;
57573;SDS011;63722;48.858;21.906;2023-03-03T09:07:51;20.23;;;13.30;;
57573;SDS011;63722;48.858;21.906;2023-03-03T09:10:18;15.90;;;13.10;;
57573;SDS011;63722;48.858;21.906;2023-03-03T09:12:51;21.05;;;14.65;;
57573;SDS011;63722;48.858;21.906;2023-03-03T09:15:19;16.35;;;14.30;;
57573;SDS011;63722;48.858;21.906;2023-03-03T09:17:49;16.60;;;14.43;;
57573;SDS011;63722;48.858;21.906;2023-03-03T09:22:47;14.45;;;12.93;;
57573;SDS011;63722;48.858;21.906;2023-03-03T09:27:48;15.63;;;13.98;;
57573;SDS011;63722;48.858;21.906;2023-03-03T09:32:46;19.27;;;13.52;;
57573;SDS011;63722;48.858;21.906;2023-03-03T09:46:17;15.13;;;13.23;;
57573;SDS011;63722;48.858;21.906;2023-03-03T09:57:38;19.95;;;13.75;;
57573;SDS011;63722;48.858;21.906;2023-03-03T10:23:39;21.38;;;12.60;;
57573;SDS011;63722;48.858;21.906;2023-03-03T10:37:21;21.33;;;13.13;;
57573;SDS011;63722;48.858;21.906;2023-03-03T10:39:56;24.88;;;12.40;;
57573;SDS011;63722;48.858;21.906;2023-03-03T10:42:48;13.43;;;12.13;;
57573;SDS011;63722;48.858;21.906;2023-03-03T10:50:50;14.35;;;11.95;;
57573;SDS011;63722;48.858;21.906;2023-03-03T11:04:05;28.40;;;15.45;;
57573;SDS011;63722;48.858;21.906;2023-03-03T11:17:28;17.45;;;15.48;;
57573;SDS011;63722;48.858;21.906;2023-03-03T11:20:30;16.92;;;13.23;;
57573;SDS011;63722;48.858;21.906;2023-03-03T11:23:34;16.48;;;14.75;;
57573;SDS011;63722;48.858;21.906;2023-03-03T11:31:26;17.40;;;13.80;;
57573;SDS011;63722;48.858;21.906;2023-03-03T11:39:37;19.17;;;16.98;;
57573;SDS011;63722;48.858;21.906;2023-03-03T11:44:51;17.95;;;15.63;;
57573;SDS011;63722;48.858;21.906;2023-03-03T11:47:21;19.77;;;15.73;;
57573;SDS011;63722;48.858;21.906;2023-03-03T11:49:53;19.20;;;16.50;;
57573;SDS011;63722;48.858;21.906;2023-03-03T11:55:19;26.02;;;16.48;;
57573;SDS011;63722;48.858;21.906;2023-03-03T11:57:53;20.70;;;17.20;;
57573;SDS011;63722;48.858;21.906;2023-03-03T12:16:54;15.05;;;13.55;;
57573;SDS011;63722;48.858;21.906;2023-03-03T12:19:24;15.18;;;13.77;;
57573;SDS011;63722;48.858;21.906;2023-03-03T12:46:16;19.42;;;12.75;;
57573;SDS011;63722;48.858;21.906;2023-03-03T12:48:48;12.93;;;11.70;;
57573;SDS011;63722;48.858;21.906;2023-03-03T13:04:55;12.43;;;11.18;;
57573;SDS011;63722;48.858;21.906;2023-03-03T13:10:07;15.23;;;11.07;;
57573;SDS011;63722;48.858;21.906;2023-03-03T13:15:26;19.40;;;10.93;;
57573;SDS011;63722;48.858;21.906;2023-03-03T13:21:03;11.30;;;10.00;;
57573;SDS011;63722;48.858;21.906;2023-03-03T13:26:20;19.85;;;10.57;;
57573;SDS011;63722;48.858;21.906;2023-03-03T13:31:17;11.82;;;10.85;;
57573;SDS011;63722;48.858;21.906;2023-03-03T13:33:55;10.85;;;9.88;;
57573;SDS011;63722;48.858;21.906;2023-03-03T13:36:24;13.52;;;10.35;;
57573;SDS011;63722;48.858;21.906;2023-03-03T13:38:56;10.90;;;9.90;;
57573;SDS011;63722;48.858;21.906;2023-03-03T13:44:23;13.20;;;10.07;;
57573;SDS011;63722;48.858;21.906;2023-03-03T13:50:10;12.27;;;9.45;;
57573;SDS011;63722;48.858;21.906;2023-03-03T13:52:30;10.82;;;9.80;;
57573;SDS011;63722;48.858;21.906;2023-03-03T14:11:11;11.07;;;9.05;;
57573;SDS011;63722;48.858;21.906;2023-03-03T14:16:29;15.98;;;9.20;;
57573;SDS011;63722;48.858;21.906;2023-03-03T14:19:10;12.07;;;8.68;;
57573;SDS011;63722;48.858;21.906;2023-03-03T14:22:03;14.50;;;9.18;;
57573;SDS011;63722;48.858;21.906;2023-03-03T14:27:37;12.32;;;8.57;;
57573;SDS011;63722;48.858;21.906;2023-03-03T14:35:28;9.38;;;8.68;;
57573;SDS011;63722;48.858;21.906;2023-03-03T14:40:46;12.27;;;8.57;;
57573;SDS011;63722;48.858;21.906;2023-03-03T14:43:20;10.18;;;9.30;;
57573;SDS011;63722;48.858;21.906;2023-03-03T14:45:52;8.73;;;8.10;;
57573;SDS011;63722;48.858;21.906;2023-03-03T14:48:36;9.02;;;8.13;;
57573;SDS011;63722;48.858;21.906;2023-03-03T14:51:24;9.32;;;8.70;;
57573;SDS011;63722;48.858;21.906;2023-03-03T14:53:51;9.45;;;8.68;;
57573;SDS011;63722;48.858;21.906;2023-03-03T14:56:25;8.90;;;8.00;;
57573;SDS011;63722;48.858;21.906;2023-03-03T14:59:15;9.82;;;8.80;;
57573;SDS011;63722;48.858;21.906;2023-03-03T15:01:44;9.73;;;8.93;;
57573;SDS011;63722;48.858;21.906;2023-03-03T15:06:42;10.13;;;9.13;;
57573;SDS011;63722;48.858;21.906;2023-03-03T15:22:47;14.48;;;10.77;;
57573;SDS011;63722;48.858;21.906;2023-03-03T15:27:43;12.35;;;10.13;;
57573;SDS011;63722;48.858;21.906;2023-03-03T15:30:34;14.13;;;10.93;;
57573;SDS011;63722;48.858;21.906;2023-03-03T15:36:07;13.80;;;11.40;;
57573;SDS011;63722;48.858;21.906;2023-03-03T15:39:37;13.80;;;12.32;;
57573;SDS011;63722;48.858;21.906;2023-03-03T15:44:29;13.52;;;12.15;;
57573;SDS011;63722;48.858;21.906;2023-03-03T16:03:01;13.77;;;12.30;;
57573;SDS011;63722;48.858;21.906;2023-03-03T16:11:51;14.73;;;12.07;;
57573;SDS011;63722;48.858;21.906;2023-03-03T16:19:43;12.52;;;11.25;;
57573;SDS011;63722;48.858;21.906;2023-03-03T16:22:32;15.80;;;11.70;;
57573;SDS011;63722;48.858;21.906;2023-03-03T16:33:40;11.45;;;10.32;;
57573;SDS011;63722;48.858;21.906;2023-03-03T16:38:52;12.82;;;9.88;;
57573;SDS011;63722;48.858;21.906;2023-03-03T16:44:26;12.57;;;10.60;;
57573;SDS011;63722;48.858;21.906;2023-03-03T16:52:22;10.77;;;9.75;;
57573;SDS011;63722;48.858;21.906;2023-03-03T16:54:54;11.70;;;10.50;;
57573;SDS011;63722;48.858;21.906;2023-03-03T17:00:37;10.75;;;9.50;;
57573;SDS011;63722;48.858;21.906;2023-03-03T17:29:48;10.30;;;9.40;;
57573;SDS011;63722;48.858;21.906;2023-03-03T17:40:38;9.18;;;8.48;;
57573;SDS011;63722;48.858;21.906;2023-03-03T17:45:47;9.45;;;8.55;;
57573;SDS011;63722;48.858;21.906;2023-03-03T17:56:21;9.60;;;8.73;;
57573;SDS011;63722;48.858;21.906;2023-03-03T18:09:37;9.57;;;8.75;;
57573;SDS011;63722;48.858;21.906;2023-03-03T18:12:33;9.15;;;8.43;;
57573;SDS011;63722;48.858;21.906;2023-03-03T18:15:19;8.93;;;8.13;;
57573;SDS011;63722;48.858;21.906;2023-03-03T18:20:53;8.43;;;7.85;;
57573;SDS011;63722;48.858;21.906;2023-03-03T18:31:23;9.05;;;8.27;;
57573;SDS011;63722;48.858;21.906;2023-03-03T18:39:35;8.73;;;7.95;;
57573;SDS011;63722;48.858;21.906;2023-03-03T18:42:05;8.98;;;7.72;;
57573;SDS011;63722;48.858;21.906;2023-03-03T18:44:32;10.20;;;8.32;;
57573;SDS011;63722;48.858;21.906;2023-03-03T18:46:57;7.88;;;7.32;;
57573;SDS011;63722;48.858;21.906;2023-03-03T18:52:15;8.02;;;7.53;;
57573;SDS011;63722;48.858;21.906;2023-03-03T18:54:53;8.70;;;7.90;;
57573;SDS011;63722;48.858;21.906;2023-03-03T18:57:25;8.13;;;7.43;;
57573;SDS011;63722;48.858;21.906;2023-03-03T18:59:55;7.85;;;7.30;;
57573;SDS011;63722;48.858;21.906;2023-03-03T19:02:50;7.65;;;7.13;;
57573;SDS011;63722;48.858;21.906;2023-03-03T19:05:33;7.80;;;7.20;;
57573;SDS011;63722;48.858;21.906;2023-03-03T19:08:03;9.75;;;7.28;;
57573;SDS011;63722;48.858;21.906;2023-03-03T19:15:59;7.75;;;7.25;;
57573;SDS011;63722;48.858;21.906;2023-03-03T19:19:19;8.07;;;7.57;;
57573;SDS011;63722;48.858;21.906;2023-03-03T19:21:20;7.32;;;6.65;;
57573;SDS011;63722;48.858;21.906;2023-03-03T19:28:59;8.20;;;7.60;;
57573;SDS011;63722;48.858;21.906;2023-03-03T19:31:40;7.45;;;6.95;;
57573;SDS011;63722;48.858;21.906;2023-03-03T19:34:27;7.35;;;6.80;;
57573;SDS011;63722;48.858;21.906;2023-03-03T19:37:13;7.13;;;6.70;;
57573;SDS011;63722;48.858;21.906;2023-03-03T19:46:02;7.15;;;6.68;;
57573;SDS011;63722;48.858;21.906;2023-03-03T19:48:34;7.88;;;7.43;;
57573;SDS011;63722;48.858;21.906;2023-03-03T19:54:03;7.20;;;6.63;;
57573;SDS011;63722;48.858;21.906;2023-03-03T19:56:39;9.02;;;6.85;;
57573;SDS011;63722;48.858;21.906;2023-03-03T20:21:32;7.38;;;6.80;;
57573;SDS011;63722;48.858;21.906;2023-03-03T20:26:39;6.82;;;6.32;;
57573;SDS011;63722;48.858;21.906;2023-03-03T20:37:05;7.32;;;6.78;;
57573;SDS011;63722;48.858;21.906;2023-03-03T20:44:50;6.40;;;6.00;;
57573;SDS011;63722;48.858;21.906;2023-03-03T20:52:56;7.25;;;6.75;;
57573;SDS011;63722;48.858;21.906;2023-03-03T21:01:15;6.40;;;6.03;;
57573;SDS011;63722;48.858;21.906;2023-03-03T21:03:50;6.22;;;5.85;;
57573;SDS011;63722;48.858;21.906;2023-03-03T21:06:16;6.32;;;6.03;;
57573;SDS011;63722;48.858;21.906;2023-03-03T21:13:47;5.97;;;5.47;;
57573;SDS011;63722;48.858;21.906;2023-03-03T21:21:27;5.93;;;5.63;;
57573;SDS011;63722;48.858;21.906;2023-03-03T21:23:54;6.05;;;5.68;;
57573;SDS011;63722;48.858;21.906;2023-03-03T21:29:17;7.00;;;6.60;;
57573;SDS011;63722;48.858;21.906;2023-03-03T21:31:49;6.10;;;5.77;;
57573;SDS011;63722;48.858;21.906;2023-03-03T21:34:33;5.78;;;5.38;;
57573;SDS011;63722;48.858;21.906;2023-03-03T21:37:01;6.80;;;6.40;;
57573;SDS011;63722;48.858;21.906;2023-03-03T21:39:35;6.10;;;5.78;;
57573;SDS011;63722;48.858;21.906;2023-03-03T21:42:12;5.53;;;5.22;;
57573;SDS011;63722;48.858;21.906;2023-03-03T21:44:43;6.15;;;5.75;;
57573;SDS011;63722;48.858;21.906;2023-03-03T21:47:17;5.82;;;5.53;;
57573;SDS011;63722;48.858;21.906;2023-03-03T21:49:45;6.43;;;6.07;;
57573;SDS011;63722;48.858;21.906;2023-03-03T21:52:13;6.40;;;6.00;;
57573;SDS011;63722;48.858;21.906;2023-03-03T21:54:40;5.70;;;5.40;;
57573;SDS011;63722;48.858;21.906;2023-03-03T21:57:10;6.53;;;6.13;;
57573;SDS011;63722;48.858;21.906;2023-03-03T21:59:35;5.90;;;5.50;;
57573;SDS011;63722;48.858;21.906;2023-03-03T22:02:01;5.85;;;5.55;;
57573;SDS011;63722;48.858;21.906;2023-03-03T22:04:27;5.95;;;5.57;;
57573;SDS011;63722;48.858;21.906;2023-03-03T22:06:53;5.80;;;5.45;;
57573;SDS011;63722;48.858;21.906;2023-03-03T22:09:19;6.20;;;5.70;;
57573;SDS011;63722;48.858;21.906;2023-03-03T22:11:44;5.80;;;5.40;;
57573;SDS011;63722;48.858;21.906;2023-03-03T22:14:09;5.82;;;5.43;;
57573;SDS011;63722;48.858;21.906;2023-03-03T22:16:35;5.65;;;5.35;;
57573;SDS011;63722;48.858;21.906;2023-03-03T22:19:01;5.63;;;5.25;;
57573;SDS011;63722;48.858;21.906;2023-03-03T22:21:27;5.90;;;5.50;;
57573;SDS011;63722;48.858;21.906;2023-03-03T22:23:53;6.25;;;5.80;;
57573;SDS011;63722;48.858;21.906;2023-03-03T22:26:18;5.65;;;5.35;;
57573;SDS011;63722;48.858;21.906;2023-03-03T22:28:46;6.05;;;5.75;;
57573;SDS011;63722;48.858;21.906;2023-03-03T22:31:12;5.95;;;5.53;;
57573;SDS011;63722;48.858;21.906;2023-03-03T22:33:38;5.72;;;5.32;;
57573;SDS011;63722;48.858;21.906;2023-03-03T22:36:03;5.43;;;5.13;;
57573;SDS011;63722;48.858;21.906;2023-03-03T22:38:29;5.53;;;5.22;;
57573;SDS011;63722;48.858;21.906;2023-03-03T22:40:54;5.85;;;5.45;;
57573;SDS011;63722;48.858;21.906;2023-03-03T22:43:20;5.75;;;5.32;;
57573;SDS011;63722;48.858;21.906;2023-03-03T22:45:45;5.43;;;5.03;;